Time;durP1;ratioP1;P1;durP2;ratioP2;P2;SDS_P1;SDS_P2;PMS_P1;PMS_P2;Temp;Humidity;BMP_temperature;BMP_pressure;BME280_temperature;BME280_humidity;BME280_pressure;Samples;Min_cycle;Max_cycle;Signal;HPM_P1;HPM_P2
2022/01/26 00:07:11;;;;;;;28.98;15.30;;;;;;;;;;6248426;28;20075;-70
2022/01/26 00:10:12;;;;;;;23.27;12.93;;;;;;;;;;6264494;28;20396;-70
2022/01/26 00:13:12;;;;;;;17.15;10.07;;;;;;;;;;6267126;28;20262;-70
2022/01/26 00:16:24;;;;;;;35.10;17.63;;;;;;;;;;6267116;28;20105;-70
2022/01/26 00:19:30;;;;;;;38.70;14.43;;;;;;;;;;6267193;28;20275;-70
2022/01/26 00:29:15;;;;;;;43.65;20.67;;;;;;;;;;6266071;28;20144;-70
2022/01/26 00:38:53;;;;;;;31.85;17.38;;;;;;;;;;6271563;28;20116;-70
2022/01/26 00:41:57;;;;;;;34.03;14.38;;;;;;;;;;6271679;28;20074;-70
2022/01/26 00:44:57;;;;;;;30.33;15.52;;;;;;;;;;6270761;28;20449;-70
2022/01/26 00:47:57;;;;;;;32.63;15.32;;;;;;;;;;6271448;28;20028;-70
2022/01/26 00:51:00;;;;;;;30.00;15.48;;;;;;;;;;6271215;28;20554;-70
2022/01/26 00:54:05;;;;;;;30.92;16.13;;;;;;;;;;6264827;28;20029;-70
2022/01/26 00:57:06;;;;;;;25.30;13.77;;;;;;;;;;6254398;28;20079;-70
2022/01/26 01:00:07;;;;;;;33.53;17.08;;;;;;;;;;6256513;28;20025;-70
2022/01/26 01:03:07;;;;;;;31.95;15.88;;;;;;;;;;6249059;28;20457;-70
2022/01/26 01:06:16;;;;;;;33.83;14.50;;;;;;;;;;6261681;28;20106;-70
2022/01/26 01:09:18;;;;;;;31.85;15.90;;;;;;;;;;6238129;28;20120;-70
2022/01/26 01:12:18;;;;;;;32.00;17.87;;;;;;;;;;6246139;28;20022;-70
2022/01/26 01:15:18;;;;;;;29.17;13.77;;;;;;;;;;6245810;28;20068;-70
2022/01/26 01:18:23;;;;;;;32.65;13.50;;;;;;;;;;6245962;28;20252;-70
2022/01/26 01:30:46;;;;;;;20.45;10.18;;;;;;;;;;6260325;28;20053;-71
2022/01/26 01:33:48;;;;;;;27.40;15.25;;;;;;;;;;6269993;28;20021;-71
2022/01/26 01:36:51;;;;;;;31.55;16.38;;;;;;;;;;6269990;28;20017;-71
2022/01/26 01:39:51;;;;;;;28.75;13.98;;;;;;;;;;6270220;28;20056;-71
2022/01/26 01:42:51;;;;;;;21.03;9.27;;;;;;;;;;6268942;28;20512;-71
2022/01/26 01:45:52;;;;;;;29.23;13.50;;;;;;;;;;6270189;28;20265;-71
2022/01/26 01:48:52;;;;;;;32.40;13.80;;;;;;;;;;6269860;28;20255;-71
2022/01/26 01:51:58;;;;;;;24.77;10.53;;;;;;;;;;6265866;28;20013;-71
2022/01/26 01:55:03;;;;;;;30.60;13.57;;;;;;;;;;6246047;28;20609;-71
2022/01/26 01:58:03;;;;;;;29.65;13.07;;;;;;;;;;6245280;28;20089;-71
2022/01/26 02:01:04;;;;;;;15.98;8.85;;;;;;;;;;6262695;28;20028;-71
2022/01/26 02:04:04;;;;;;;17.85;8.82;;;;;;;;;;6231147;28;20020;-73
2022/01/26 02:07:04;;;;;;;33.97;15.05;;;;;;;;;;6267460;28;20044;-71
2022/01/26 02:10:05;;;;;;;31.10;15.10;;;;;;;;;;6248113;28;20018;-71
2022/01/26 02:13:12;;;;;;;31.27;14.27;;;;;;;;;;6244117;28;20280;-71
2022/01/26 02:16:23;;;;;;;23.25;10.82;;;;;;;;;;6244719;28;20583;-71
2022/01/26 03:04:48;;;;;;;21.88;10.45;;;;;;;;;;6246899;28;20599;-72
2022/01/26 03:08:02;;;;;;;29.77;15.82;;;;;;;;;;6265637;28;20013;-71
2022/01/26 03:11:12;;;;;;;21.67;8.60;;;;;;;;;;6243787;28;20393;-72
2022/01/26 03:15:02;;;;;;;15.90;9.05;;;;;;;;;;6242837;28;20726;-72
2022/01/26 03:20:41;;;;;;;20.35;9.45;;;;;;;;;;6242745;28;20021;-72
2022/01/26 03:30:30;;;;;;;29.35;14.38;;;;;;;;;;6254738;28;20049;-71
2022/01/26 03:36:57;;;;;;;30.48;13.88;;;;;;;;;;6263259;28;20477;-71
2022/01/26 03:39:57;;;;;;;25.52;13.85;;;;;;;;;;6233514;28;20053;-71
2022/01/26 03:42:57;;;;;;;31.25;14.98;;;;;;;;;;6249359;28;20027;-71
2022/01/26 03:45:58;;;;;;;28.92;12.10;;;;;;;;;;6267794;28;20017;-71
2022/01/26 03:48:58;;;;;;;26.30;14.82;;;;;;;;;;6267314;28;20020;-71
2022/01/26 03:51:58;;;;;;;33.00;18.00;;;;;;;;;;6262898;28;20738;-71
2022/01/26 03:54:58;;;;;;;27.77;14.38;;;;;;;;;;6265201;28;20017;-71
2022/01/26 03:57:59;;;;;;;35.03;16.03;;;;;;;;;;6242830;28;20083;-71
2022/01/26 04:00:59;;;;;;;24.83;10.63;;;;;;;;;;6260300;28;20287;-72
2022/01/26 04:03:59;;;;;;;22.52;11.80;;;;;;;;;;6247367;28;20256;-72
2022/01/26 04:07:01;;;;;;;19.90;12.50;;;;;;;;;;6266190;28;20044;-71
2022/01/26 04:10:10;;;;;;;25.65;13.10;;;;;;;;;;6233618;28;20104;-71
2022/01/26 04:13:11;;;;;;;22.73;11.20;;;;;;;;;;6247274;28;20108;-71
2022/01/26 04:16:11;;;;;;;23.77;13.18;;;;;;;;;;6229591;28;20031;-71
2022/01/26 04:19:11;;;;;;;29.00;13.50;;;;;;;;;;6247172;28;20021;-71
2022/01/26 04:22:20;;;;;;;24.88;13.25;;;;;;;;;;6247287;28;20500;-71
2022/01/26 04:25:23;;;;;;;23.02;11.20;;;;;;;;;;6246987;28;20018;-71
2022/01/26 04:28:29;;;;;;;19.63;9.63;;;;;;;;;;6228875;28;20528;-71
2022/01/26 04:31:30;;;;;;;30.90;16.35;;;;;;;;;;6268429;28;20060;-71
2022/01/26 04:34:32;;;;;;;20.52;11.35;;;;;;;;;;6254010;28;20033;-72
2022/01/26 04:37:38;;;;;;;;;;;;;;;;;;6245870;28;20556;-72
2022/01/26 04:40:45;;;;;;;21.88;12.75;;;;;;;;;;6228785;28;19913;-72
2022/01/26 04:43:49;;;;;;;33.03;16.33;;;;;;;;;;6246630;28;20025;-72
2022/01/26 04:46:50;;;;;;;25.35;12.70;;;;;;;;;;6246712;28;20068;-72
2022/01/26 04:49:50;;;;;;;16.65;9.10;;;;;;;;;;6228701;28;20022;-72
2022/01/26 04:52:50;;;;;;;23.58;12.25;;;;;;;;;;6237737;28;20013;-72
2022/01/26 04:55:52;;;;;;;41.28;18.50;;;;;;;;;;6264051;28;20270;-72
2022/01/26 04:58:52;;;;;;;21.20;12.07;;;;;;;;;;6246481;28;20516;-72
2022/01/26 05:01:52;;;;;;;23.03;12.83;;;;;;;;;;6269296;28;20017;-72
2022/01/26 05:04:52;;;;;;;26.33;11.25;;;;;;;;;;6250510;28;20342;-72
2022/01/26 05:07:52;;;;;;;45.15;22.17;;;;;;;;;;6268247;28;20260;-72
2022/01/26 05:10:53;;;;;;;20.45;11.38;;;;;;;;;;6246425;28;20349;-72
2022/01/26 05:13:54;;;;;;;28.42;13.45;;;;;;;;;;6246286;28;20272;-72
2022/01/26 05:16:55;;;;;;;36.80;16.17;;;;;;;;;;6227776;28;20527;-72
2022/01/26 05:19:58;;;;;;;34.22;19.52;;;;;;;;;;6245821;28;20021;-72
2022/01/26 05:22:58;;;;;;;45.30;20.10;;;;;;;;;;6246158;28;20021;-72
2022/01/26 05:25:58;;;;;;;45.42;25.17;;;;;;;;;;6246058;28;20036;-72
2022/01/26 05:28:58;;;;;;;42.73;20.70;;;;;;;;;;6246392;28;20068;-72
2022/01/26 05:31:58;;;;;;;82.07;34.27;;;;;;;;;;6270548;28;20759;-72
2022/01/26 05:34:59;;;;;;;162.23;66.40;;;;;;;;;;6269787;28;20335;-72
2022/01/26 05:37:59;;;;;;;41.42;20.38;;;;;;;;;;6263024;28;20271;-72
2022/01/26 05:41:02;;;;;;;59.53;29.25;;;;;;;;;;6260800;28;20014;-72
2022/01/26 05:44:02;;;;;;;;;;;;;;;;;;6245461;28;20014;-72
2022/01/26 05:47:03;;;;;;;38.72;18.63;;;;;;;;;;6258270;28;20027;-71
2022/01/26 05:50:04;;;;;;;32.35;17.45;;;;;;;;;;6262888;28;20498;-71
2022/01/26 05:53:05;;;;;;;40.80;19.52;;;;;;;;;;6257381;28;20021;-71
2022/01/26 05:56:05;;;;;;;185.00;74.45;;;;;;;;;;6269286;28;20059;-71
2022/01/26 05:59:05;;;;;;;77.55;34.80;;;;;;;;;;6269201;28;20021;-71
2022/01/26 06:02:06;;;;;;;76.60;36.70;;;;;;;;;;6265835;28;20016;-72
2022/01/26 06:05:06;;;;;;;34.45;17.88;;;;;;;;;;6261658;28;20291;-72
2022/01/26 06:08:07;;;;;;;26.27;12.77;;;;;;;;;;6264369;28;20473;-72
2022/01/26 06:11:07;;;;;;;41.17;18.98;;;;;;;;;;6244613;28;20018;-71
2022/01/26 06:14:07;;;;;;;72.70;28.80;;;;;;;;;;6226617;28;20029;-71
2022/01/26 06:17:07;;;;;;;26.80;13.67;;;;;;;;;;6244545;28;20029;-71
2022/01/26 06:20:08;;;;;;;40.40;20.37;;;;;;;;;;6226651;28;20276;-71
2022/01/26 06:23:08;;;;;;;54.22;23.75;;;;;;;;;;6244768;28;20795;-72
2022/01/26 06:26:08;;;;;;;52.90;25.45;;;;;;;;;;6244297;28;20025;-71
2022/01/26 06:29:08;;;;;;;39.88;17.08;;;;;;;;;;6245323;28;20052;-71
2022/01/26 06:32:10;;;;;;;25.77;13.30;;;;;;;;;;6250721;28;20051;-71
2022/01/26 06:35:11;;;;;;;47.63;20.15;;;;;;;;;;6263959;28;20354;-71
2022/01/26 06:38:11;;;;;;;33.60;16.52;;;;;;;;;;6263642;28;20021;-72
2022/01/26 06:41:12;;;;;;;31.03;13.90;;;;;;;;;;6261387;28;20059;-72
2022/01/26 06:44:20;;;;;;;26.83;13.40;;;;;;;;;;6247424;28;20251;-72
2022/01/26 06:48:25;;;;;;;27.48;13.68;;;;;;;;;;6256386;28;20024;-72
2022/01/26 06:50:40;;;;;;;29.95;16.27;;;;;;;;;;6226453;28;20060;-72
2022/01/26 06:53:41;;;;;;;32.60;15.15;;;;;;;;;;6253504;28;20040;-72
2022/01/26 06:56:41;;;;;;;27.00;13.80;;;;;;;;;;6259494;28;20021;-72
2022/01/26 06:59:41;;;;;;;28.05;14.68;;;;;;;;;;6253114;28;20306;-72
2022/01/26 07:02:41;;;;;;;35.90;16.13;;;;;;;;;;6238394;28;20382;-72
2022/01/26 07:05:42;;;;;;;35.95;17.50;;;;;;;;;;6257565;28;20491;-71
2022/01/26 07:08:42;;;;;;;37.00;17.35;;;;;;;;;;6267556;28;20071;-72
2022/01/26 07:11:45;;;;;;;34.27;16.73;;;;;;;;;;6264559;28;20479;-71
2022/01/26 07:21:27;;;;;;;28.15;14.32;;;;;;;;;;6243231;28;20108;-71
2022/01/26 07:24:27;;;;;;;27.92;13.23;;;;;;;;;;6242388;28;20487;-71
2022/01/26 07:27:27;;;;;;;38.53;17.00;;;;;;;;;;6258249;28;20009;-71
2022/01/26 07:30:28;;;;;;;32.50;14.77;;;;;;;;;;6258324;28;20319;-71
2022/01/26 07:33:28;;;;;;;24.20;12.95;;;;;;;;;;6249766;28;20666;-72
2022/01/26 07:36:28;;;;;;;30.73;15.23;;;;;;;;;;6267146;28;20025;-72
2022/01/26 07:39:40;;;;;;;43.05;18.38;;;;;;;;;;6249053;28;20032;-72
2022/01/26 07:42:41;;;;;;;17.40;10.60;;;;;;;;;;6267339;28;20013;-72
2022/01/26 07:45:42;;;;;;;39.47;22.77;;;;;;;;;;6267347;28;20108;-72
2022/01/26 07:48:42;;;;;;;36.60;18.10;;;;;;;;;;6267174;28;20041;-72
2022/01/26 07:51:42;;;;;;;45.72;22.13;;;;;;;;;;6263233;28;20389;-72
2022/01/26 07:54:44;;;;;;;48.55;21.42;;;;;;;;;;6264030;28;20104;-72
2022/01/26 07:57:45;;;;;;;41.72;24.55;;;;;;;;;;6266093;28;20028;-72
2022/01/26 08:00:46;;;;;;;38.15;17.73;;;;;;;;;;6261547;28;20025;-72
2022/01/26 08:03:46;;;;;;;20.88;11.98;;;;;;;;;;6249696;28;20075;-72
2022/01/26 08:06:46;;;;;;;38.95;18.52;;;;;;;;;;6251230;28;20067;-72
2022/01/26 08:09:46;;;;;;;61.10;28.23;;;;;;;;;;6238978;28;20468;-72
2022/01/26 08:12:49;;;;;;;45.25;23.63;;;;;;;;;;6246722;28;20278;-72
2022/01/26 08:15:49;;;;;;;45.40;19.20;;;;;;;;;;6249601;28;20013;-72
2022/01/26 08:18:49;;;;;;;48.80;23.65;;;;;;;;;;6248548;28;20032;-72
2022/01/26 08:21:49;;;;;;;50.75;26.85;;;;;;;;;;6256627;28;20025;-72
2022/01/26 08:24:50;;;;;;;52.35;24.60;;;;;;;;;;6256699;28;20465;-72
2022/01/26 08:28:03;;;;;;;50.10;21.73;;;;;;;;;;6245867;28;20040;-72
2022/01/26 08:31:04;;;;;;;86.82;35.50;;;;;;;;;;6242439;28;20563;-72
2022/01/26 08:34:04;;;;;;;36.28;16.58;;;;;;;;;;6250671;28;20313;-73
2022/01/26 08:37:05;;;;;;;54.95;26.67;;;;;;;;;;6254270;28;20497;-72
2022/01/26 08:40:05;;;;;;;44.60;24.05;;;;;;;;;;6248087;28;20036;-73
2022/01/26 08:43:06;;;;;;;20.77;10.70;;;;;;;;;;6258342;28;20052;-73
2022/01/26 08:46:06;;;;;;;38.30;21.37;;;;;;;;;;6258410;28;20017;-73
2022/01/26 08:49:06;;;;;;;36.20;19.35;;;;;;;;;;6253017;28;20295;-73
2022/01/26 08:52:07;;;;;;;40.88;21.60;;;;;;;;;;6238165;28;20104;-73
2022/01/26 08:55:07;;;;;;;40.95;22.05;;;;;;;;;;6250483;28;20013;-73
2022/01/26 08:58:07;;;;;;;38.30;20.65;;;;;;;;;;6247264;28;20014;-73
2022/01/26 09:01:08;;;;;;;42.10;21.17;;;;;;;;;;6249828;28;20087;-73
2022/01/26 09:04:08;;;;;;;29.52;16.02;;;;;;;;;;6259175;28;20683;-72
2022/01/26 09:07:09;;;;;;;36.43;17.43;;;;;;;;;;6255932;28;20009;-72
2022/01/26 09:10:09;;;;;;;47.38;24.35;;;;;;;;;;6257022;28;20282;-73
2022/01/26 09:13:10;;;;;;;40.40;21.13;;;;;;;;;;6252329;28;20552;-73
2022/01/26 09:16:10;;;;;;;38.70;22.55;;;;;;;;;;6243248;28;20059;-74
2022/01/26 09:19:24;;;;;;;27.90;14.25;;;;;;;;;;6257008;28;20021;-73
2022/01/26 09:22:24;;;;;;;40.17;20.33;;;;;;;;;;6259398;28;20046;-73
2022/01/26 09:25:25;;;;;;;41.53;20.30;;;;;;;;;;6253963;28;20447;-74
2022/01/26 09:28:25;;;;;;;43.22;18.05;;;;;;;;;;6255985;28;20045;-74
2022/01/26 09:31:25;;;;;;;33.75;16.15;;;;;;;;;;6246888;28;20025;-73
2022/01/26 09:34:28;;;;;;;30.58;13.55;;;;;;;;;;6229396;28;20048;-74
2022/01/26 09:37:28;;;;;;;49.50;25.08;;;;;;;;;;6255781;28;20066;-74
2022/01/26 09:40:28;;;;;;;57.63;26.55;;;;;;;;;;6246766;28;20017;-74
2022/01/26 09:43:29;;;;;;;56.73;20.03;;;;;;;;;;6250484;28;20464;-74
2022/01/26 09:46:30;;;;;;;58.13;26.83;;;;;;;;;;6257591;28;20261;-74
2022/01/26 09:49:34;;;;;;;58.08;30.45;;;;;;;;;;6252031;28;20025;-74
2022/01/26 09:52:40;;;;;;;64.60;27.65;;;;;;;;;;6265127;28;20063;-74
2022/01/26 09:55:41;;;;;;;38.90;14.90;;;;;;;;;;6268376;28;20036;-74
2022/01/26 09:58:42;;;;;;;57.58;26.95;;;;;;;;;;6269739;28;20025;-74
2022/01/26 10:01:44;;;;;;;36.17;17.27;;;;;;;;;;6250876;28;20113;-74
2022/01/26 10:04:44;;;;;;;49.95;20.40;;;;;;;;;;6230634;28;20018;-74
2022/01/26 10:08:51;;;;;;;42.93;22.00;;;;;;;;;;6250405;28;20009;-74
2022/01/26 10:18:14;;;;;;;61.08;31.02;;;;;;;;;;6269647;28;20021;-74
2022/01/26 10:21:14;;;;;;;55.70;29.75;;;;;;;;;;6250780;28;20021;-74
2022/01/26 10:24:16;;;;;;;89.32;40.13;;;;;;;;;;6265658;28;20095;-74
2022/01/26 10:27:16;;;;;;;45.90;19.27;;;;;;;;;;6264948;28;20028;-74
2022/01/26 10:30:20;;;;;;;49.53;25.03;;;;;;;;;;6261217;28;20041;-74
2022/01/26 10:33:20;;;;;;;54.17;22.63;;;;;;;;;;6244869;28;20346;-74
2022/01/26 10:36:21;;;;;;;42.72;20.40;;;;;;;;;;6272303;28;20418;-74
2022/01/26 10:39:25;;;;;;;39.90;19.30;;;;;;;;;;6242554;28;20028;-74
2022/01/26 10:42:26;;;;;;;44.65;24.10;;;;;;;;;;6242674;28;20014;-74
2022/01/26 10:45:45;;;;;;;49.08;25.77;;;;;;;;;;6243710;28;20025;-74
2022/01/26 10:49:05;;;;;;;51.30;24.00;;;;;;;;;;6239384;28;20049;-75
2022/01/26 10:52:20;;;;;;;33.95;18.60;;;;;;;;;;6249584;28;20023;-75
2022/01/26 10:55:20;;;;;;;33.60;16.88;;;;;;;;;;6256247;28;20082;-75
2022/01/26 10:58:22;;;;;;;44.55;21.77;;;;;;;;;;6255767;28;20024;-75
2022/01/26 11:01:22;;;;;;;38.43;19.97;;;;;;;;;;6237208;28;20056;-75
2022/01/26 11:04:22;;;;;;;29.42;16.00;;;;;;;;;;6260198;28;20276;-75
2022/01/26 11:07:40;;;;;;;33.38;16.75;;;;;;;;;;6259610;28;20052;-76
2022/01/26 11:10:40;;;;;;;39.10;17.58;;;;;;;;;;6258944;28;20053;-75
2022/01/26 11:13:40;;;;;;;17.00;10.77;;;;;;;;;;6257924;28;20065;-75
2022/01/26 11:16:53;;;;;;;36.78;21.17;;;;;;;;;;6265396;28;20033;-75
2022/01/26 11:19:54;;;;;;;32.97;18.77;;;;;;;;;;6231162;28;20316;-75
2022/01/26 11:22:56;;;;;;;42.78;23.20;;;;;;;;;;6233066;28;20102;-76
2022/01/26 11:25:56;;;;;;;53.22;26.92;;;;;;;;;;6224185;28;20389;-75
2022/01/26 11:28:57;;;;;;;30.37;15.30;;;;;;;;;;6241687;28;20060;-75
2022/01/26 11:32:06;;;;;;;76.27;46.00;;;;;;;;;;6264456;28;20354;-75
2022/01/26 11:35:08;;;;;;;53.63;29.27;;;;;;;;;;6260893;28;20287;-75
2022/01/26 11:42:11;;;;;;;45.17;20.88;;;;;;;;;;6262415;28;20024;-75
2022/01/26 11:45:29;;;;;;;33.17;16.98;;;;;;;;;;6264315;28;20029;-75
2022/01/26 11:48:29;;;;;;;40.20;21.13;;;;;;;;;;6216506;28;20324;-75
2022/01/26 11:51:49;;;;;;;41.83;23.40;;;;;;;;;;6246113;28;20025;-75
2022/01/26 11:54:52;;;;;;;54.63;27.63;;;;;;;;;;6258467;28;20307;-75
2022/01/26 11:57:54;;;;;;;44.28;21.88;;;;;;;;;;6260242;28;20172;-75
2022/01/26 12:04:16;;;;;;;46.45;27.00;;;;;;;;;;6260129;28;20031;-75
2022/01/26 12:07:22;;;;;;;65.00;38.53;;;;;;;;;;6255388;28;20108;-75
2022/01/26 12:10:28;;;;;;;45.38;26.20;;;;;;;;;;6249250;28;20031;-75
2022/01/26 12:13:30;;;;;;;38.63;16.48;;;;;;;;;;6261590;28;20112;-74
2022/01/26 12:16:38;;;;;;;36.60;22.55;;;;;;;;;;6250551;28;20031;-74
2022/01/26 12:20:06;;;;;;;43.05;19.73;;;;;;;;;;6244720;28;20042;-74
2022/01/26 12:43:10;;;;;;;23.02;14.57;;;;;;;;;;6256155;28;20021;-75
2022/01/26 12:46:20;;;;;;;68.45;36.15;;;;;;;;;;6250501;28;20143;-75
2022/01/26 12:49:21;;;;;;;76.35;38.35;;;;;;;;;;6261092;28;20060;-76
2022/01/26 12:52:22;;;;;;;46.33;23.40;;;;;;;;;;6260102;28;20032;-76
2022/01/26 12:55:24;;;;;;;28.55;14.25;;;;;;;;;;6258186;28;20491;-76
2022/01/26 12:58:29;;;;;;;27.73;16.23;;;;;;;;;;6250291;28;20456;-76
2022/01/26 13:01:29;;;;;;;44.22;20.77;;;;;;;;;;6243394;28;20121;-76
2022/01/26 13:04:29;;;;;;;36.03;22.00;;;;;;;;;;6261179;28;20021;-76
2022/01/26 13:07:30;;;;;;;37.37;17.93;;;;;;;;;;6264828;28;20465;-76
2022/01/26 13:10:30;;;;;;;35.35;22.75;;;;;;;;;;6253222;28;20352;-77
2022/01/26 13:13:33;;;;;;;42.30;24.08;;;;;;;;;;6245776;28;20033;-77
2022/01/26 13:16:37;;;;;;;31.83;14.98;;;;;;;;;;6260952;28;20040;-77
2022/01/26 13:20:43;;;;;;;27.27;16.40;;;;;;;;;;6250589;28;20032;-77
2022/01/26 13:23:28;;;;;;;35.25;17.67;;;;;;;;;;6249882;28;20029;-77
2022/01/26 13:27:07;;;;;;;29.00;15.50;;;;;;;;;;6246973;28;20231;-77
2022/01/26 13:30:12;;;;;;;23.38;11.68;;;;;;;;;;6253225;28;20036;-77
2022/01/26 13:43:29;;;;;;;40.70;22.38;;;;;;;;;;6250872;28;20808;-78
2022/01/26 13:52:16;;;;;;;37.17;21.05;;;;;;;;;;6257240;28;20271;-78
2022/01/26 14:01:22;;;;;;;48.88;26.20;;;;;;;;;;6252664;28;20299;-78
2022/01/26 14:04:22;;;;;;;54.72;28.33;;;;;;;;;;6241203;28;20029;-78
2022/01/26 14:07:23;;;;;;;63.75;34.95;;;;;;;;;;6249179;28;20032;-78
2022/01/26 14:10:23;;;;;;;28.30;15.97;;;;;;;;;;6255603;28;20024;-78
2022/01/26 14:13:25;;;;;;;86.05;47.10;;;;;;;;;;6228587;28;20433;-78
2022/01/26 14:16:28;;;;;;;77.78;46.60;;;;;;;;;;6241165;28;20025;-78
2022/01/26 14:25:55;;;;;;;26.67;17.65;;;;;;;;;;6248045;28;20029;-78
2022/01/26 14:28:56;;;;;;;39.92;22.40;;;;;;;;;;6255552;28;20417;-79
2022/01/26 14:54:55;;;;;;;41.38;23.52;;;;;;;;;;6245884;28;20036;-78
2022/01/26 15:40:56;;;;;;;25.25;14.27;;;;;;;;;;6259641;28;20021;-77
2022/01/26 16:36:14;;;;;;;35.53;19.42;;;;;;;;;;6258370;28;20060;-77
2022/01/26 16:52:37;;;;;;;32.90;16.08;;;;;;;;;;6259598;28;20480;-76
2022/01/26 17:21:05;;;;;;;45.72;21.10;;;;;;;;;;6250083;28;20034;-76
2022/01/26 18:32:16;;;;;;;56.10;30.13;;;;;;;;;;6268122;28;20033;-76
2022/01/26 18:51:24;;;;;;;39.08;18.85;;;;;;;;;;6253649;28;20423;-76
2022/01/26 18:54:25;;;;;;;41.15;21.70;;;;;;;;;;6266561;28;20082;-76
2022/01/26 18:57:25;;;;;;;38.25;18.67;;;;;;;;;;6249634;28;20036;-76
2022/01/26 19:00:26;;;;;;;55.00;25.55;;;;;;;;;;6268395;28;20032;-76
2022/01/26 19:03:26;;;;;;;41.25;20.50;;;;;;;;;;6241537;28;20059;-76
2022/01/26 19:06:26;;;;;;;78.35;34.40;;;;;;;;;;6235289;28;21461;-75
2022/01/26 19:09:29;;;;;;;54.65;23.30;;;;;;;;;;6241029;28;20687;-76
2022/01/26 19:12:33;;;;;;;40.42;17.65;;;;;;;;;;6245305;28;20026;-75
2022/01/26 19:15:34;;;;;;;31.05;13.48;;;;;;;;;;6251929;28;20113;-75
2022/01/26 19:18:50;;;;;;;51.88;21.63;;;;;;;;;;6249690;28;20087;-76
2022/01/26 19:28:26;;;;;;;39.90;19.23;;;;;;;;;;6249466;28;20102;-76
2022/01/26 19:31:52;;;;;;;75.70;31.25;;;;;;;;;;6246836;28;20098;-76
2022/01/26 19:51:04;;;;;;;28.88;13.48;;;;;;;;;;6262292;28;20033;-75
2022/01/26 19:54:05;;;;;;;84.45;33.30;;;;;;;;;;6261946;28;20028;-75
2022/01/26 19:57:05;;;;;;;104.47;41.10;;;;;;;;;;6244347;28;20472;-75
2022/01/26 20:00:06;;;;;;;108.85;43.75;;;;;;;;;;6263230;28;20279;-75
2022/01/26 20:03:06;;;;;;;93.35;31.77;;;;;;;;;;6262952;28;20481;-75
2022/01/26 20:06:09;;;;;;;80.65;33.60;;;;;;;;;;6240155;28;20024;-75
2022/01/26 20:09:16;;;;;;;98.50;35.90;;;;;;;;;;6254467;28;20363;-75
2022/01/26 20:13:01;;;;;;;84.28;34.85;;;;;;;;;;6257022;28;20031;-75
2022/01/26 20:15:39;;;;;;;90.10;32.85;;;;;;;;;;6247023;28;20374;-75
2022/01/26 20:18:40;;;;;;;88.70;34.05;;;;;;;;;;6246788;28;20017;-75
2022/01/26 20:21:40;;;;;;;71.80;25.90;;;;;;;;;;6267159;28;20074;-75
2022/01/26 20:24:40;;;;;;;109.97;40.53;;;;;;;;;;6243832;28;20143;-75
2022/01/26 20:27:41;;;;;;;116.35;42.28;;;;;;;;;;6262863;28;20271;-75
2022/01/26 20:30:45;;;;;;;92.28;38.33;;;;;;;;;;6266809;28;20057;-75
2022/01/26 20:33:46;;;;;;;67.55;29.88;;;;;;;;;;6249016;28;20457;-75
2022/01/26 20:36:46;;;;;;;44.38;21.58;;;;;;;;;;6266236;28;20027;-74
2022/01/26 20:39:47;;;;;;;61.93;28.60;;;;;;;;;;6266754;28;20024;-74
2022/01/26 20:42:47;;;;;;;43.13;20.73;;;;;;;;;;6266994;28;20270;-74
2022/01/26 20:45:47;;;;;;;37.80;19.90;;;;;;;;;;6248742;28;20095;-74
2022/01/26 20:48:47;;;;;;;85.45;35.40;;;;;;;;;;6249072;28;20021;-75
2022/01/26 20:51:48;;;;;;;49.92;20.45;;;;;;;;;;6252685;28;20086;-74
2022/01/26 20:54:48;;;;;;;56.50;23.42;;;;;;;;;;6262584;28;20013;-74
2022/01/26 20:57:48;;;;;;;50.00;18.30;;;;;;;;;;6260965;28;20057;-74
2022/01/26 21:00:49;;;;;;;75.57;34.60;;;;;;;;;;6248646;28;20279;-74
2022/01/26 21:03:49;;;;;;;49.05;21.67;;;;;;;;;;6258896;28;20024;-74
2022/01/26 21:06:49;;;;;;;65.80;25.93;;;;;;;;;;6250506;28;20112;-75
2022/01/26 21:09:49;;;;;;;89.72;37.65;;;;;;;;;;6242603;28;20260;-75
2022/01/26 21:12:50;;;;;;;57.10;22.63;;;;;;;;;;6266423;28;20388;-75
2022/01/26 21:15:50;;;;;;;36.47;14.77;;;;;;;;;;6265491;28;20333;-75
2022/01/26 21:18:53;;;;;;;30.42;16.65;;;;;;;;;;6236997;28;20037;-75
2022/01/26 21:21:53;;;;;;;45.58;23.15;;;;;;;;;;6264937;28;20029;-75
2022/01/26 21:24:53;;;;;;;53.45;24.58;;;;;;;;;;6248294;28;20024;-75
2022/01/26 21:27:53;;;;;;;47.97;21.00;;;;;;;;;;6260490;28;20334;-75
2022/01/26 21:30:53;;;;;;;59.38;20.67;;;;;;;;;;6237542;28;20279;-75
2022/01/26 21:33:54;;;;;;;37.53;15.98;;;;;;;;;;6264922;28;20057;-76
2022/01/26 21:36:55;;;;;;;59.83;24.20;;;;;;;;;;6250295;28;20013;-76
2022/01/26 21:39:55;;;;;;;59.60;23.60;;;;;;;;;;6266645;28;20047;-76
2022/01/26 21:42:55;;;;;;;63.90;23.52;;;;;;;;;;6233662;28;20029;-76
2022/01/26 21:45:55;;;;;;;71.73;31.60;;;;;;;;;;6245861;28;20354;-76
2022/01/26 21:48:56;;;;;;;71.77;28.40;;;;;;;;;;6245379;28;20298;-76
2022/01/26 21:51:56;;;;;;;63.92;27.35;;;;;;;;;;6251189;28;20263;-76
2022/01/26 21:54:56;;;;;;;46.17;21.90;;;;;;;;;;6251993;28;20701;-76
2022/01/26 21:57:57;;;;;;;54.53;23.90;;;;;;;;;;6227794;28;20640;-76
2022/01/26 22:00:57;;;;;;;42.30;18.70;;;;;;;;;;6261787;28;20060;-76
2022/01/26 22:03:57;;;;;;;55.03;21.73;;;;;;;;;;6250827;28;20628;-76
2022/01/26 22:06:57;;;;;;;55.03;25.47;;;;;;;;;;6267287;28;20393;-76
2022/01/26 22:09:57;;;;;;;42.47;18.13;;;;;;;;;;6249359;28;20402;-76
2022/01/26 22:12:58;;;;;;;45.30;18.13;;;;;;;;;;6244897;28;20155;-76
2022/01/26 22:15:58;;;;;;;36.40;16.90;;;;;;;;;;6245262;28;20051;-76
2022/01/26 22:18:58;;;;;;;43.33;19.30;;;;;;;;;;6244534;28;20267;-76
2022/01/26 22:21:58;;;;;;;40.50;18.38;;;;;;;;;;6245023;28;20020;-76
2022/01/26 22:24:58;;;;;;;40.10;16.48;;;;;;;;;;6244730;28;20067;-76
2022/01/26 22:27:59;;;;;;;27.85;13.48;;;;;;;;;;6244569;28;20056;-76
2022/01/26 22:31:00;;;;;;;34.47;14.65;;;;;;;;;;6243990;28;20060;-76
2022/01/26 22:34:02;;;;;;;36.60;15.50;;;;;;;;;;6269780;28;20021;-76
2022/01/26 22:37:06;;;;;;;22.58;8.63;;;;;;;;;;6242961;28;20028;-76
2022/01/26 22:40:07;;;;;;;31.38;15.45;;;;;;;;;;6226438;28;20029;-76
2022/01/26 22:43:07;;;;;;;28.50;12.05;;;;;;;;;;6244268;28;20119;-76
2022/01/26 22:46:08;;;;;;;42.40;20.42;;;;;;;;;;6244715;28;20014;-76
2022/01/26 22:49:08;;;;;;;36.40;13.98;;;;;;;;;;6244239;28;20377;-76
2022/01/26 22:52:08;;;;;;;37.58;16.10;;;;;;;;;;6252181;28;20025;-76
2022/01/26 22:55:09;;;;;;;26.33;13.13;;;;;;;;;;6266310;28;20017;-76
2022/01/26 22:58:09;;;;;;;46.63;20.83;;;;;;;;;;6243677;28;20256;-76
2022/01/26 23:04:20;;;;;;;46.20;19.08;;;;;;;;;;6247002;28;20282;-76
2022/01/26 23:07:20;;;;;;;28.30;13.23;;;;;;;;;;6243721;28;20020;-76
2022/01/26 23:10:21;;;;;;;20.45;9.98;;;;;;;;;;6266322;28;20384;-76
2022/01/26 23:13:21;;;;;;;32.40;13.90;;;;;;;;;;6250106;28;20380;-76
2022/01/26 23:16:22;;;;;;;25.38;12.02;;;;;;;;;;6268130;28;20732;-76
2022/01/26 23:19:22;;;;;;;29.80;12.10;;;;;;;;;;6250083;28;20063;-76
2022/01/26 23:22:24;;;;;;;28.33;13.50;;;;;;;;;;6267870;28;20017;-76
2022/01/26 23:25:34;;;;;;;23.17;12.95;;;;;;;;;;6268266;28;20267;-76
2022/01/26 23:31:58;;;;;;;39.78;16.38;;;;;;;;;;6255785;28;20393;-76
2022/01/26 23:35:14;;;;;;;30.15;15.00;;;;;;;;;;6245384;28;20477;-76
2022/01/26 23:42:15;;;;;;;27.60;13.15;;;;;;;;;;6268024;28;20025;-76
